Aérodrome :
LOGIN :

S'inscrire | Disclaimer

   EN    FR    IT 

 










Légende :    VFR   VFR Marginal   IFR   IFR Intensif   IFR Très Intensif
Visi : 
Plafond : 
>= 8 km
>= 3000ft
5 à 8 km
1000 à 3000 ft
1500m à 5 km
500 à 1000 ft
800 à 1500m
200 à 500 ft
< 800m
< 200 ft
Symboles :   Orages  Brouillard  Fortes neiges  Fortes précipitations  Vent > 20 kt
SIGMETs :   Divers  Orages  Givrage  Turbulence  Onde Orograph.  Cendres Volcan.






- Altitude de l'aérodrome : 876 ft
- Code IATA : MBX


LJMB - Maribor

DERNIER METAR :
  • 140900Z VRB02KT 5000 BR BKN003 OVC030 05/04 Q1012 R99/19//95

METARs EXPIRÉS :
  • 140830Z VRB01KT 3000 BR BKN003 OVC030 04/04 Q1012 R32/19//95
  • 140800Z VRB01KT 1000 R32/1100U BR BKN002 OVC030 04/04 Q1012
  • 140730Z 32002KT 0600 R32/0900U FG VV002 04/04 Q1012
  • 140700Z 00000KT 0600 R32/0900N FG VV002 04/03 Q1012
  • 140630Z 07002KT 0300 R32/0500N FG VV002 03/03 Q1012

TAF TAF LJMB
Valide du 14 à 09h jusqu'au 15 à 09h UTC


140800Z 1409/1509 35002KT 0700 FG VV002
BECMG 1409/1411 16005KT 8000 NSW SCT015 BKN035
PROB30
TEMPO 1410/1415 SCT015 SCT030
PROB40
TEMPO 1419/1509 6000 -RA SCT005 OVC020



MET'MAP, la Météo Aéronautique d'un coup d'oeil ! - Copyright ORBIFLY Décembre 2007 - Disclaimer

ORBIFLY MET'MAP TEAM :

Programmation & Développement : Alexandra Zaïnal
Conception & Développement : Baudouin d'Aumeries
Co-Programmation & Développement : Marc-Olivier Méhu
Soutien technique & logistique : Manuel Goepfert

Contact : metmap@orbifly.com




SOURCES & CREDITS :

   NOAA